sensor_id;sensor_type;location;lat;lon;timestamp;temperature;humidity
22674;DHT22;11504;43.334;21.918;2024-02-04T00:04:09;5.2;100.0
22674;DHT22;11504;43.334;21.918;2024-02-04T00:08:45;4.9;100.0
22674;DHT22;11504;43.334;21.918;2024-02-04T00:13:21;4.9;100.0
22674;DHT22;11504;43.334;21.918;2024-02-04T00:17:57;4.8;100.0
22674;DHT22;11504;43.334;21.918;2024-02-04T00:22:33;4.8;100.0
22674;DHT22;11504;43.334;21.918;2024-02-04T00:27:09;4.8;100.0
22674;DHT22;11504;43.334;21.918;2024-02-04T00:31:45;4.7;100.0
22674;DHT22;11504;43.334;21.918;2024-02-04T00:36:21;4.7;100.0
22674;DHT22;11504;43.334;21.918;2024-02-04T00:40:57;4.7;100.0
22674;DHT22;11504;43.334;21.918;2024-02-04T00:45:33;4.7;100.0
22674;DHT22;11504;43.334;21.918;2024-02-04T00:50:09;4.7;100.0
22674;DHT22;11504;43.334;21.918;2024-02-04T00:54:46;4.7;100.0
22674;DHT22;11504;43.334;21.918;2024-02-04T00:59:22;4.8;100.0
22674;DHT22;11504;43.334;21.918;2024-02-04T01:03:58;4.8;100.0
22674;DHT22;11504;43.334;21.918;2024-02-04T01:08:34;4.8;100.0
22674;DHT22;11504;43.334;21.918;2024-02-04T01:13:10;4.8;100.0
22674;DHT22;11504;43.334;21.918;2024-02-04T01:17:47;4.8;100.0
22674;DHT22;11504;43.334;21.918;2024-02-04T01:22:23;4.8;100.0
22674;DHT22;11504;43.334;21.918;2024-02-04T01:26:59;4.8;100.0
22674;DHT22;11504;43.334;21.918;2024-02-04T01:31:35;4.8;100.0
22674;DHT22;11504;43.334;21.918;2024-02-04T01:36:12;4.8;100.0
22674;DHT22;11504;43.334;21.918;2024-02-04T01:40:48;4.8;100.0
22674;DHT22;11504;43.334;21.918;2024-02-04T01:45:24;4.8;100.0
22674;DHT22;11504;43.334;21.918;2024-02-04T01:50:00;4.7;100.0
22674;DHT22;11504;43.334;21.918;2024-02-04T01:54:42;4.7;100.0
22674;DHT22;11504;43.334;21.918;2024-02-04T01:59:22;4.9;100.0
22674;DHT22;11504;43.334;21.918;2024-02-04T02:04:00;4.9;100.0
22674;DHT22;11504;43.334;21.918;2024-02-04T02:08:41;5.1;100.0
22674;DHT22;11504;43.334;21.918;2024-02-04T02:13:22;5.1;100.0
22674;DHT22;11504;43.334;21.918;2024-02-04T02:18:22;5.2;100.0
22674;DHT22;11504;43.334;21.918;2024-02-04T02:23:30;5.2;100.0
22674;DHT22;11504;43.334;21.918;2024-02-04T02:29:02;5.2;100.0
22674;DHT22;11504;43.334;21.918;2024-02-04T02:33:38;5.2;100.0
22674;DHT22;11504;43.334;21.918;2024-02-04T02:38:22;5.2;100.0
22674;DHT22;11504;43.334;21.918;2024-02-04T02:43:25;5.2;100.0
22674;DHT22;11504;43.334;21.918;2024-02-04T02:48:09;5.2;100.0
22674;DHT22;11504;43.334;21.918;2024-02-04T02:52:48;5.2;100.0
22674;DHT22;11504;43.334;21.918;2024-02-04T02:57:24;5.2;100.0
22674;DHT22;11504;43.334;21.918;2024-02-04T03:02:00;5.2;100.0
22674;DHT22;11504;43.334;21.918;2024-02-04T03:06:36;5.2;100.0
22674;DHT22;11504;43.334;21.918;2024-02-04T03:11:13;5.3;100.0
22674;DHT22;11504;43.334;21.918;2024-02-04T03:15:49;5.3;100.0
22674;DHT22;11504;43.334;21.918;2024-02-04T03:20:25;5.2;100.0
22674;DHT22;11504;43.334;21.918;2024-02-04T03:25:02;5.2;100.0
22674;DHT22;11504;43.334;21.918;2024-02-04T03:29:42;5.2;100.0
22674;DHT22;11504;43.334;21.918;2024-02-04T03:34:18;5.2;100.0
22674;DHT22;11504;43.334;21.918;2024-02-04T03:38:54;5.2;100.0
22674;DHT22;11504;43.334;21.918;2024-02-04T03:43:30;5.2;100.0
22674;DHT22;11504;43.334;21.918;2024-02-04T03:48:07;5.2;100.0
22674;DHT22;11504;43.334;21.918;2024-02-04T03:52:43;5.2;100.0
22674;DHT22;11504;43.334;21.918;2024-02-04T03:57:19;5.2;100.0
22674;DHT22;11504;43.334;21.918;2024-02-04T04:01:55;5.1;100.0
22674;DHT22;11504;43.334;21.918;2024-02-04T04:06:31;5.1;100.0
22674;DHT22;11504;43.334;21.918;2024-02-04T04:11:08;5.0;100.0
22674;DHT22;11504;43.334;21.918;2024-02-04T04:15:46;5.0;100.0
22674;DHT22;11504;43.334;21.918;2024-02-04T04:20:22;5.0;100.0
22674;DHT22;11504;43.334;21.918;2024-02-04T04:24:59;5.0;100.0
22674;DHT22;11504;43.334;21.918;2024-02-04T04:29:35;4.9;100.0
22674;DHT22;11504;43.334;21.918;2024-02-04T04:34:12;4.9;100.0
22674;DHT22;11504;43.334;21.918;2024-02-04T04:38:48;5.0;100.0
22674;DHT22;11504;43.334;21.918;2024-02-04T04:43:25;5.0;100.0
22674;DHT22;11504;43.334;21.918;2024-02-04T04:48:02;5.1;100.0
22674;DHT22;11504;43.334;21.918;2024-02-04T04:52:42;5.1;100.0
22674;DHT22;11504;43.334;21.918;2024-02-04T04:57:19;5.1;100.0
22674;DHT22;11504;43.334;21.918;2024-02-04T05:01:55;5.2;100.0
22674;DHT22;11504;43.334;21.918;2024-02-04T05:06:32;5.2;100.0
22674;DHT22;11504;43.334;21.918;2024-02-04T05:11:09;5.2;100.0
22674;DHT22;11504;43.334;21.918;2024-02-04T05:15:45;5.2;100.0
22674;DHT22;11504;43.334;21.918;2024-02-04T05:20:23;5.2;100.0
22674;DHT22;11504;43.334;21.918;2024-02-04T05:25:00;5.2;100.0
22674;DHT22;11504;43.334;21.918;2024-02-04T05:29:36;5.2;100.0
22674;DHT22;11504;43.334;21.918;2024-02-04T05:34:12;5.2;100.0
22674;DHT22;11504;43.334;21.918;2024-02-04T05:38:49;5.1;100.0
22674;DHT22;11504;43.334;21.918;2024-02-04T05:43:25;5.1;100.0
22674;DHT22;11504;43.334;21.918;2024-02-04T05:48:01;5.0;100.0
22674;DHT22;11504;43.334;21.918;2024-02-04T05:52:37;5.0;100.0
22674;DHT22;11504;43.334;21.918;2024-02-04T05:57:13;5.0;100.0
22674;DHT22;11504;43.334;21.918;2024-02-04T06:01:49;5.0;100.0
22674;DHT22;11504;43.334;21.918;2024-02-04T06:06:26;5.0;100.0
22674;DHT22;11504;43.334;21.918;2024-02-04T06:20:16;4.9;100.0
22674;DHT22;11504;43.334;21.918;2024-02-04T06:24:52;4.9;100.0
22674;DHT22;11504;43.334;21.918;2024-02-04T06:29:29;4.9;100.0
22674;DHT22;11504;43.334;21.918;2024-02-04T06:34:05;4.9;100.0
22674;DHT22;11504;43.334;21.918;2024-02-04T06:38:41;5.1;100.0
22674;DHT22;11504;43.334;21.918;2024-02-04T06:43:22;5.1;100.0
22674;DHT22;11504;43.334;21.918;2024-02-04T06:47:58;5.2;100.0
22674;DHT22;11504;43.334;21.918;2024-02-04T06:52:34;5.2;100.0
22674;DHT22;11504;43.334;21.918;2024-02-04T06:57:10;5.2;100.0
22674;DHT22;11504;43.334;21.918;2024-02-04T07:01:46;5.4;100.0
22674;DHT22;11504;43.334;21.918;2024-02-04T07:06:23;5.4;100.0
22674;DHT22;11504;43.334;21.918;2024-02-04T07:10:59;5.7;100.0
22674;DHT22;11504;43.334;21.918;2024-02-04T07:15:36;5.7;100.0
22674;DHT22;11504;43.334;21.918;2024-02-04T07:20:12;6.0;100.0
22674;DHT22;11504;43.334;21.918;2024-02-04T07:24:49;6.0;100.0
22674;DHT22;11504;43.334;21.918;2024-02-04T07:29:26;6.2;100.0
22674;DHT22;11504;43.334;21.918;2024-02-04T07:34:03;6.2;100.0
22674;DHT22;11504;43.334;21.918;2024-02-04T07:38:40;6.6;100.0
22674;DHT22;11504;43.334;21.918;2024-02-04T07:43:16;6.6;100.0
22674;DHT22;11504;43.334;21.918;2024-02-04T07:47:53;7.0;100.0
22674;DHT22;11504;43.334;21.918;2024-02-04T07:52:30;7.0;100.0
22674;DHT22;11504;43.334;21.918;2024-02-04T07:57:07;7.0;100.0
22674;DHT22;11504;43.334;21.918;2024-02-04T08:01:43;7.1;100.0
22674;DHT22;11504;43.334;21.918;2024-02-04T08:06:19;7.1;100.0
22674;DHT22;11504;43.334;21.918;2024-02-04T08:10:55;7.2;100.0
22674;DHT22;11504;43.334;21.918;2024-02-04T08:15:31;7.2;100.0
22674;DHT22;11504;43.334;21.918;2024-02-04T08:20:10;7.2;100.0
22674;DHT22;11504;43.334;21.918;2024-02-04T08:24:46;7.2;100.0
22674;DHT22;11504;43.334;21.918;2024-02-04T08:38:33;8.1;100.0
22674;DHT22;11504;43.334;21.918;2024-02-04T08:43:09;8.1;100.0
22674;DHT22;11504;43.334;21.918;2024-02-04T08:47:55;8.1;100.0
22674;DHT22;11504;43.334;21.918;2024-02-04T08:52:31;8.1;100.0
22674;DHT22;11504;43.334;21.918;2024-02-04T08:57:07;8.1;100.0
22674;DHT22;11504;43.334;21.918;2024-02-04T09:01:44;8.2;100.0
22674;DHT22;11504;43.334;21.918;2024-02-04T09:06:20;8.2;100.0
22674;DHT22;11504;43.334;21.918;2024-02-04T09:10:57;8.4;100.0
22674;DHT22;11504;43.334;21.918;2024-02-04T09:15:33;8.4;100.0
22674;DHT22;11504;43.334;21.918;2024-02-04T09:20:11;8.4;100.0
22674;DHT22;11504;43.334;21.918;2024-02-04T09:24:48;8.4;100.0
22674;DHT22;11504;43.334;21.918;2024-02-04T09:29:24;8.5;100.0
22674;DHT22;11504;43.334;21.918;2024-02-04T09:34:00;8.5;100.0
22674;DHT22;11504;43.334;21.918;2024-02-04T09:38:36;8.6;100.0
22674;DHT22;11504;43.334;21.918;2024-02-04T09:43:14;8.6;100.0
22674;DHT22;11504;43.334;21.918;2024-02-04T09:47:54;8.6;100.0
22674;DHT22;11504;43.334;21.918;2024-02-04T09:52:40;8.6;100.0
22674;DHT22;11504;43.334;21.918;2024-02-04T09:57:26;8.6;100.0
22674;DHT22;11504;43.334;21.918;2024-02-04T10:02:07;8.7;100.0
22674;DHT22;11504;43.334;21.918;2024-02-04T10:06:46;8.7;100.0
22674;DHT22;11504;43.334;21.918;2024-02-04T10:11:23;8.8;100.0
22674;DHT22;11504;43.334;21.918;2024-02-04T10:16:00;8.8;100.0
22674;DHT22;11504;43.334;21.918;2024-02-04T10:20:37;8.8;100.0
22674;DHT22;11504;43.334;21.918;2024-02-04T10:25:13;8.8;100.0
22674;DHT22;11504;43.334;21.918;2024-02-04T10:29:50;8.8;100.0
22674;DHT22;11504;43.334;21.918;2024-02-04T10:34:27;8.8;100.0
22674;DHT22;11504;43.334;21.918;2024-02-04T10:39:05;9.2;100.0
22674;DHT22;11504;43.334;21.918;2024-02-04T10:43:44;9.2;100.0
22674;DHT22;11504;43.334;21.918;2024-02-04T10:48:34;9.5;100.0
22674;DHT22;11504;43.334;21.918;2024-02-04T10:53:16;9.5;100.0
22674;DHT22;11504;43.334;21.918;2024-02-04T10:57:58;10.0;100.0
22674;DHT22;11504;43.334;21.918;2024-02-04T11:02:36;10.0;100.0
22674;DHT22;11504;43.334;21.918;2024-02-04T11:07:17;10.0;100.0
22674;DHT22;11504;43.334;21.918;2024-02-04T11:12:03;10.5;100.0
22674;DHT22;11504;43.334;21.918;2024-02-04T11:17:50;10.5;100.0
22674;DHT22;11504;43.334;21.918;2024-02-04T11:23:35;11.1;100.0
22674;DHT22;11504;43.334;21.918;2024-02-04T11:28:27;11.7;100.0
22674;DHT22;11504;43.334;21.918;2024-02-04T11:33:06;11.7;100.0
22674;DHT22;11504;43.334;21.918;2024-02-04T11:37:43;11.7;100.0
22674;DHT22;11504;43.334;21.918;2024-02-04T11:42:24;12.0;100.0
22674;DHT22;11504;43.334;21.918;2024-02-04T11:47:06;12.0;100.0
22674;DHT22;11504;43.334;21.918;2024-02-04T11:51:46;12.3;100.0
22674;DHT22;11504;43.334;21.918;2024-02-04T11:56:25;12.3;100.0
22674;DHT22;11504;43.334;21.918;2024-02-04T12:01:01;12.3;100.0
22674;DHT22;11504;43.334;21.918;2024-02-04T12:05:38;12.3;100.0
22674;DHT22;11504;43.334;21.918;2024-02-04T12:19:29;13.5;100.0
22674;DHT22;11504;43.334;21.918;2024-02-04T12:24:07;13.5;100.0
22674;DHT22;11504;43.334;21.918;2024-02-04T12:28:44;13.5;100.0
22674;DHT22;11504;43.334;21.918;2024-02-04T12:33:21;13.5;100.0
22674;DHT22;11504;43.334;21.918;2024-02-04T12:38:00;13.5;100.0
22674;DHT22;11504;43.334;21.918;2024-02-04T12:42:37;13.7;100.0
22674;DHT22;11504;43.334;21.918;2024-02-04T12:47:19;13.7;100.0
22674;DHT22;11504;43.334;21.918;2024-02-04T12:52:07;13.9;100.0
22674;DHT22;11504;43.334;21.918;2024-02-04T12:56:50;13.9;100.0
22674;DHT22;11504;43.334;21.918;2024-02-04T13:01:30;14.1;100.0
22674;DHT22;11504;43.334;21.918;2024-02-04T13:06:07;14.1;100.0
22674;DHT22;11504;43.334;21.918;2024-02-04T13:10:54;14.3;100.0
22674;DHT22;11504;43.334;21.918;2024-02-04T13:15:38;14.3;100.0
22674;DHT22;11504;43.334;21.918;2024-02-04T13:20:16;14.3;100.0
22674;DHT22;11504;43.334;21.918;2024-02-04T13:24:52;14.3;100.0
22674;DHT22;11504;43.334;21.918;2024-02-04T13:38:40;15.1;100.0
22674;DHT22;11504;43.334;21.918;2024-02-04T13:43:16;15.1;100.0
22674;DHT22;11504;43.334;21.918;2024-02-04T13:47:52;15.1;100.0
22674;DHT22;11504;43.334;21.918;2024-02-04T13:52:28;15.1;100.0
22674;DHT22;11504;43.334;21.918;2024-02-04T13:57:05;15.1;100.0
22674;DHT22;11504;43.334;21.918;2024-02-04T14:01:42;15.2;100.0
22674;DHT22;11504;43.334;21.918;2024-02-04T14:06:18;15.2;100.0
22674;DHT22;11504;43.334;21.918;2024-02-04T14:10:55;15.2;100.0
22674;DHT22;11504;43.334;21.918;2024-02-04T14:15:31;15.2;100.0
22674;DHT22;11504;43.334;21.918;2024-02-04T14:20:10;15.2;100.0
22674;DHT22;11504;43.334;21.918;2024-02-04T14:24:47;15.2;100.0
22674;DHT22;11504;43.334;21.918;2024-02-04T14:29:23;15.1;100.0
22674;DHT22;11504;43.334;21.918;2024-02-04T14:33:59;15.1;100.0
22674;DHT22;11504;43.334;21.918;2024-02-04T14:38:35;15.0;100.0
22674;DHT22;11504;43.334;21.918;2024-02-04T14:43:11;15.0;100.0
22674;DHT22;11504;43.334;21.918;2024-02-04T14:47:48;15.0;100.0
22674;DHT22;11504;43.334;21.918;2024-02-04T14:52:24;14.9;100.0
22674;DHT22;11504;43.334;21.918;2024-02-04T14:57:00;14.9;100.0
22674;DHT22;11504;43.334;21.918;2024-02-04T15:01:36;14.8;100.0
22674;DHT22;11504;43.334;21.918;2024-02-04T15:06:13;14.8;100.0
22674;DHT22;11504;43.334;21.918;2024-02-04T15:10:49;14.7;100.0
22674;DHT22;11504;43.334;21.918;2024-02-04T15:15:28;14.7;100.0
22674;DHT22;11504;43.334;21.918;2024-02-04T15:20:08;14.5;100.0
22674;DHT22;11504;43.334;21.918;2024-02-04T15:24:50;14.5;100.0
22674;DHT22;11504;43.334;21.918;2024-02-04T15:29:29;14.3;100.0
22674;DHT22;11504;43.334;21.918;2024-02-04T15:34:14;14.3;100.0
22674;DHT22;11504;43.334;21.918;2024-02-04T15:38:52;14.1;100.0
22674;DHT22;11504;43.334;21.918;2024-02-04T15:43:28;14.1;100.0
22674;DHT22;11504;43.334;21.918;2024-02-04T15:48:10;14.1;100.0
22674;DHT22;11504;43.334;21.918;2024-02-04T15:53:00;13.9;100.0
22674;DHT22;11504;43.334;21.918;2024-02-04T15:57:48;13.9;100.0
22674;DHT22;11504;43.334;21.918;2024-02-04T16:02:28;13.6;100.0
22674;DHT22;11504;43.334;21.918;2024-02-04T16:07:05;13.6;100.0
22674;DHT22;11504;43.334;21.918;2024-02-04T16:12:04;13.4;100.0
22674;DHT22;11504;43.334;21.918;2024-02-04T16:16:54;13.4;100.0
22674;DHT22;11504;43.334;21.918;2024-02-04T16:21:38;13.3;100.0
22674;DHT22;11504;43.334;21.918;2024-02-04T16:26:14;13.3;100.0
22674;DHT22;11504;43.334;21.918;2024-02-04T16:30:50;13.2;100.0
22674;DHT22;11504;43.334;21.918;2024-02-04T16:35:27;13.2;100.0
22674;DHT22;11504;43.334;21.918;2024-02-04T16:40:06;13.0;100.0
22674;DHT22;11504;43.334;21.918;2024-02-04T16:44:46;13.0;100.0
22674;DHT22;11504;43.334;21.918;2024-02-04T16:49:24;12.9;100.0
22674;DHT22;11504;43.334;21.918;2024-02-04T16:54:03;12.9;100.0
22674;DHT22;11504;43.334;21.918;2024-02-04T16:58:39;12.8;100.0
22674;DHT22;11504;43.334;21.918;2024-02-04T17:03:17;12.8;100.0
22674;DHT22;11504;43.334;21.918;2024-02-04T17:07:56;12.8;100.0
22674;DHT22;11504;43.334;21.918;2024-02-04T17:12:35;12.6;100.0
22674;DHT22;11504;43.334;21.918;2024-02-04T17:17:15;12.6;100.0
22674;DHT22;11504;43.334;21.918;2024-02-04T17:22:03;12.3;100.0
22674;DHT22;11504;43.334;21.918;2024-02-04T17:26:42;12.3;100.0
22674;DHT22;11504;43.334;21.918;2024-02-04T17:31:19;12.0;100.0
22674;DHT22;11504;43.334;21.918;2024-02-04T17:35:55;12.0;100.0
22674;DHT22;11504;43.334;21.918;2024-02-04T17:40:31;11.8;100.0
22674;DHT22;11504;43.334;21.918;2024-02-04T17:45:10;11.8;100.0
22674;DHT22;11504;43.334;21.918;2024-02-04T17:49:46;11.5;100.0
22674;DHT22;11504;43.334;21.918;2024-02-04T17:54:22;11.5;100.0
22674;DHT22;11504;43.334;21.918;2024-02-04T17:58:58;11.2;100.0
22674;DHT22;11504;43.334;21.918;2024-02-04T18:03:34;11.2;100.0
22674;DHT22;11504;43.334;21.918;2024-02-04T18:08:10;11.2;100.0
22674;DHT22;11504;43.334;21.918;2024-02-04T18:12:47;11.0;100.0
22674;DHT22;11504;43.334;21.918;2024-02-04T18:17:25;11.0;100.0
22674;DHT22;11504;43.334;21.918;2024-02-04T18:22:03;10.7;100.0
22674;DHT22;11504;43.334;21.918;2024-02-04T18:26:40;10.7;100.0
22674;DHT22;11504;43.334;21.918;2024-02-04T18:31:17;10.4;100.0
22674;DHT22;11504;43.334;21.918;2024-02-04T18:35:54;10.4;100.0
22674;DHT22;11504;43.334;21.918;2024-02-04T18:40:30;10.2;100.0
22674;DHT22;11504;43.334;21.918;2024-02-04T18:45:08;10.2;100.0
22674;DHT22;11504;43.334;21.918;2024-02-04T18:49:44;9.9;100.0
22674;DHT22;11504;43.334;21.918;2024-02-04T18:54:19;9.9;100.0
22674;DHT22;11504;43.334;21.918;2024-02-04T18:58:55;9.9;100.0
22674;DHT22;11504;43.334;21.918;2024-02-04T19:03:31;9.9;100.0
22674;DHT22;11504;43.334;21.918;2024-02-04T19:08:07;9.9;100.0
22674;DHT22;11504;43.334;21.918;2024-02-04T19:12:43;9.8;100.0
22674;DHT22;11504;43.334;21.918;2024-02-04T19:17:20;9.8;100.0
22674;DHT22;11504;43.334;21.918;2024-02-04T19:21:56;9.6;100.0
22674;DHT22;11504;43.334;21.918;2024-02-04T19:26:32;9.6;100.0
22674;DHT22;11504;43.334;21.918;2024-02-04T19:31:09;9.4;100.0
22674;DHT22;11504;43.334;21.918;2024-02-04T19:35:45;9.4;100.0
22674;DHT22;11504;43.334;21.918;2024-02-04T19:40:23;9.4;100.0
22674;DHT22;11504;43.334;21.918;2024-02-04T19:44:59;9.4;100.0
22674;DHT22;11504;43.334;21.918;2024-02-04T19:49:35;9.5;100.0
22674;DHT22;11504;43.334;21.918;2024-02-04T19:54:11;9.5;100.0
22674;DHT22;11504;43.334;21.918;2024-02-04T19:58:48;9.3;100.0
22674;DHT22;11504;43.334;21.918;2024-02-04T20:03:23;9.3;100.0
22674;DHT22;11504;43.334;21.918;2024-02-04T20:07:59;9.3;100.0
22674;DHT22;11504;43.334;21.918;2024-02-04T20:12:35;9.1;100.0
22674;DHT22;11504;43.334;21.918;2024-02-04T20:17:11;9.1;100.0
22674;DHT22;11504;43.334;21.918;2024-02-04T20:21:48;9.0;100.0
22674;DHT22;11504;43.334;21.918;2024-02-04T20:26:24;9.0;100.0
22674;DHT22;11504;43.334;21.918;2024-02-04T20:31:00;8.8;100.0
22674;DHT22;11504;43.334;21.918;2024-02-04T20:35:36;8.8;100.0
22674;DHT22;11504;43.334;21.918;2024-02-04T20:40:13;8.8;100.0
22674;DHT22;11504;43.334;21.918;2024-02-04T20:44:50;8.8;100.0
22674;DHT22;11504;43.334;21.918;2024-02-04T20:49:26;8.7;100.0
22674;DHT22;11504;43.334;21.918;2024-02-04T20:54:05;8.7;100.0
22674;DHT22;11504;43.334;21.918;2024-02-04T20:58:43;8.5;100.0
22674;DHT22;11504;43.334;21.918;2024-02-04T21:03:19;8.5;100.0
22674;DHT22;11504;43.334;21.918;2024-02-04T21:07:56;8.5;100.0
22674;DHT22;11504;43.334;21.918;2024-02-04T21:12:32;8.3;100.0
22674;DHT22;11504;43.334;21.918;2024-02-04T21:17:09;8.3;100.0
22674;DHT22;11504;43.334;21.918;2024-02-04T21:21:45;8.0;100.0
22674;DHT22;11504;43.334;21.918;2024-02-04T21:26:22;8.0;100.0
22674;DHT22;11504;43.334;21.918;2024-02-04T21:30:58;7.8;100.0
22674;DHT22;11504;43.334;21.918;2024-02-04T21:35:34;7.8;100.0
22674;DHT22;11504;43.334;21.918;2024-02-04T21:40:12;7.8;100.0
22674;DHT22;11504;43.334;21.918;2024-02-04T21:44:48;7.8;100.0
22674;DHT22;11504;43.334;21.918;2024-02-04T21:49:24;7.9;100.0
22674;DHT22;11504;43.334;21.918;2024-02-04T21:54:01;7.9;100.0
22674;DHT22;11504;43.334;21.918;2024-02-04T21:58:37;7.8;100.0
22674;DHT22;11504;43.334;21.918;2024-02-04T22:03:13;7.8;100.0
22674;DHT22;11504;43.334;21.918;2024-02-04T22:07:49;7.8;100.0
22674;DHT22;11504;43.334;21.918;2024-02-04T22:12:26;7.7;100.0
22674;DHT22;11504;43.334;21.918;2024-02-04T22:17:03;7.7;100.0
22674;DHT22;11504;43.334;21.918;2024-02-04T22:21:40;7.6;100.0
22674;DHT22;11504;43.334;21.918;2024-02-04T22:26:16;7.6;100.0
22674;DHT22;11504;43.334;21.918;2024-02-04T22:30:52;7.5;100.0
22674;DHT22;11504;43.334;21.918;2024-02-04T22:35:29;7.5;100.0
22674;DHT22;11504;43.334;21.918;2024-02-04T22:40:08;7.4;100.0
22674;DHT22;11504;43.334;21.918;2024-02-04T22:44:45;7.4;100.0
22674;DHT22;11504;43.334;21.918;2024-02-04T22:49:21;7.3;100.0
22674;DHT22;11504;43.334;21.918;2024-02-04T22:53:58;7.3;100.0
22674;DHT22;11504;43.334;21.918;2024-02-04T22:58:34;7.3;100.0
22674;DHT22;11504;43.334;21.918;2024-02-04T23:03:11;7.2;100.0
22674;DHT22;11504;43.334;21.918;2024-02-04T23:07:47;7.2;100.0
22674;DHT22;11504;43.334;21.918;2024-02-04T23:12:23;7.2;100.0
22674;DHT22;11504;43.334;21.918;2024-02-04T23:17:00;7.2;100.0
22674;DHT22;11504;43.334;21.918;2024-02-04T23:21:37;7.1;100.0
22674;DHT22;11504;43.334;21.918;2024-02-04T23:26:14;7.1;100.0
22674;DHT22;11504;43.334;21.918;2024-02-04T23:30:52;7.0;100.0
22674;DHT22;11504;43.334;21.918;2024-02-04T23:35:29;7.0;100.0
22674;DHT22;11504;43.334;21.918;2024-02-04T23:40:09;6.9;100.0
22674;DHT22;11504;43.334;21.918;2024-02-04T23:44:48;6.9;100.0
22674;DHT22;11504;43.334;21.918;2024-02-04T23:49:25;6.8;100.0
22674;DHT22;11504;43.334;21.918;2024-02-04T23:54:02;6.8;100.0
22674;DHT22;11504;43.334;21.918;2024-02-04T23:58:39;6.8;100.0
